createdAt,value
2018-03-04T00:00:56.592Z,91.70
2018-03-04T00:03:24.111Z,91.60
2018-03-04T00:05:51.639Z,91.70
2018-03-04T00:08:19.181Z,91.50
2018-03-04T00:10:46.710Z,91.50
2018-03-04T00:13:15.031Z,91.20
2018-03-04T00:15:43.194Z,91.20
2018-03-04T00:18:11.294Z,91.20
2018-03-04T00:20:38.878Z,91.40
2018-03-04T00:23:07.216Z,91.00
2018-03-04T00:25:34.730Z,91.00
2018-03-04T00:28:03.043Z,91.80
2018-03-04T00:30:30.590Z,91.80
2018-03-04T00:32:58.111Z,92.00
2018-03-04T00:35:27.442Z,91.80
2018-03-04T00:37:55.926Z,91.80
2018-03-04T00:40:23.539Z,91.90
2018-03-04T00:42:51.029Z,92.20
2018-03-04T00:45:18.606Z,92.80
2018-03-04T00:47:46.131Z,92.70
2018-03-04T00:50:14.473Z,91.90
2018-03-04T00:52:41.998Z,91.90
2018-03-04T00:55:09.536Z,90.90
2018-03-04T00:57:37.097Z,90.60
2018-03-04T01:00:04.626Z,90.20
2018-03-04T01:02:32.952Z,90.00
2018-03-04T01:05:00.542Z,89.50
2018-03-04T01:07:28.096Z,88.80
2018-03-04T01:09:55.664Z,88.10
2018-03-04T01:12:23.187Z,88.40
2018-03-04T01:14:50.715Z,89.30
2018-03-04T01:17:19.022Z,89.60
2018-03-04T01:19:46.542Z,89.60
2018-03-04T01:22:14.097Z,90.20
2018-03-04T01:24:41.617Z,90.60
2018-03-04T01:27:09.139Z,91.20
2018-03-04T01:29:36.687Z,92.30
2018-03-04T01:32:04.216Z,93.60
2018-03-04T01:34:31.778Z,93.90
2018-03-04T01:36:59.304Z,93.90
2018-03-04T01:39:27.773Z,93.30
2018-03-04T01:41:55.316Z,93.50
2018-03-04T01:44:22.842Z,93.50
2018-03-04T01:46:51.161Z,94.20
2018-03-04T01:49:18.694Z,94.10
2018-03-04T01:51:52.102Z,94.10
2018-03-04T01:54:19.624Z,93.50
2018-03-04T01:56:47.158Z,93.30
2018-03-04T01:59:14.710Z,93.40
2018-03-04T02:01:42.238Z,92.60
2018-03-04T02:04:09.782Z,92.00
2018-03-04T02:06:37.302Z,92.30
2018-03-04T02:09:04.853Z,92.30
2018-03-04T02:11:32.390Z,92.00
2018-03-04T02:13:59.919Z,91.80
2018-03-04T02:16:27.475Z,91.60
2018-03-04T02:18:54.994Z,91.30
2018-03-04T02:21:24.469Z,91.40
2018-03-04T02:23:51.998Z,91.30
2018-03-04T02:26:19.551Z,91.80
2018-03-04T02:28:47.859Z,92.10
2018-03-04T02:31:15.412Z,92.10
2018-03-04T02:33:42.960Z,91.80
2018-03-04T02:36:10.487Z,91.70
2018-03-04T02:38:38.011Z,91.80
2018-03-04T02:41:05.563Z,91.40
2018-03-04T02:43:33.106Z,92.20
2018-03-04T02:46:00.666Z,92.20
2018-03-04T02:48:29.166Z,91.80
2018-03-04T02:50:56.683Z,91.70
2018-03-04T02:53:26.937Z,91.80
2018-03-04T02:55:55.427Z,91.80
2018-03-04T02:58:24.917Z,92.20
2018-03-04T03:00:52.436Z,92.70
2018-03-04T03:03:19.950Z,91.80
2018-03-04T03:05:47.494Z,91.70
2018-03-04T03:08:15.017Z,91.80
2018-03-04T03:10:42.566Z,91.70
2018-03-04T03:13:10.079Z,91.60
2018-03-04T03:15:37.618Z,92.20
2018-03-04T03:18:05.168Z,92.10
2018-03-04T03:20:33.703Z,92.30
2018-03-04T03:23:01.261Z,92.10
2018-03-04T03:25:28.789Z,91.80
2018-03-04T03:27:56.306Z,92.00
2018-03-04T03:30:24.611Z,91.90
2018-03-04T03:32:52.139Z,91.90
2018-03-04T03:35:20.446Z,92.80
2018-03-04T03:37:47.967Z,92.70
2018-03-04T03:40:15.514Z,92.50
2018-03-04T03:42:43.057Z,92.30
2018-03-04T03:45:10.591Z,92.20
2018-03-04T03:47:38.155Z,92.10
2018-03-04T03:50:05.708Z,91.60
2018-03-04T03:52:33.222Z,91.10
2018-03-04T03:55:00.775Z,91.70
2018-03-04T03:57:28.302Z,91.80
2018-03-04T03:59:55.848Z,92.00
2018-03-04T04:02:23.368Z,91.70
2018-03-04T04:04:50.881Z,91.50
2018-03-04T04:07:18.422Z,91.20
2018-03-04T04:09:45.942Z,91.30
2018-03-04T04:12:14.265Z,91.80
2018-03-04T04:14:41.786Z,91.70
2018-03-04T04:17:09.303Z,92.30
2018-03-04T04:19:36.845Z,91.90
2018-03-04T04:22:04.357Z,91.80
2018-03-04T04:24:31.947Z,91.50
2018-03-04T04:26:59.477Z,91.40
2018-03-04T04:29:27.011Z,91.20
2018-03-04T04:31:54.545Z,91.40
2018-03-04T04:34:22.049Z,91.40
2018-03-04T04:36:49.599Z,91.50
2018-03-04T04:39:17.142Z,91.40
2018-03-04T04:41:44.671Z,91.20
2018-03-04T04:44:12.234Z,90.80
2018-03-04T04:46:39.800Z,91.30
2018-03-04T04:49:07.318Z,91.30
2018-03-04T04:51:34.838Z,91.20
2018-03-04T04:54:02.353Z,91.20
2018-03-04T04:56:29.902Z,91.20
2018-03-04T04:58:57.465Z,91.40
2018-03-04T05:01:25.022Z,91.20
2018-03-04T05:03:52.559Z,91.10
2018-03-04T05:06:21.027Z,91.20
2018-03-04T05:08:49.345Z,91.60
2018-03-04T05:11:16.891Z,91.60
2018-03-04T05:13:44.405Z,91.50
2018-03-04T05:16:11.955Z,91.60
2018-03-04T05:18:40.415Z,91.60
2018-03-04T05:21:07.939Z,92.00
2018-03-04T05:23:35.483Z,91.40
2018-03-04T05:26:03.776Z,91.20
2018-03-04T05:28:31.327Z,91.20
2018-03-04T05:30:58.877Z,91.10
2018-03-04T05:33:27.154Z,91.70
2018-03-04T05:35:56.044Z,91.70
2018-03-04T05:38:24.349Z,91.40
2018-03-04T05:40:52.009Z,91.40
2018-03-04T05:43:19.540Z,91.20
2018-03-04T05:45:48.010Z,91.40
2018-03-04T05:48:16.319Z,91.70
2018-03-04T05:50:43.838Z,91.70
2018-03-04T05:53:11.382Z,91.50
2018-03-04T05:55:38.925Z,91.90
2018-03-04T05:58:06.494Z,91.90
2018-03-04T06:00:34.050Z,91.60
2018-03-04T06:03:01.578Z,91.90
2018-03-04T06:05:29.136Z,92.30
2018-03-04T06:07:56.784Z,93.70
2018-03-04T06:10:24.316Z,94.00
2018-03-04T06:12:52.621Z,93.30
2018-03-04T06:15:20.175Z,93.30
2018-03-04T06:17:47.734Z,92.30
2018-03-04T06:20:16.213Z,91.80
2018-03-04T06:22:44.702Z,91.70
2018-03-04T06:25:12.270Z,91.70
2018-03-04T06:27:40.750Z,91.60
2018-03-04T06:30:08.298Z,91.50
2018-03-04T06:32:35.814Z,91.30
2018-03-04T06:35:03.334Z,91.10
2018-03-04T06:37:30.879Z,91.20
2018-03-04T06:39:59.331Z,91.60
2018-03-04T06:42:27.639Z,91.60
2018-03-04T06:44:56.122Z,91.60
2018-03-04T06:47:23.662Z,92.10
2018-03-04T06:49:51.231Z,92.40
2018-03-04T06:52:18.785Z,92.00
2018-03-04T06:54:46.361Z,92.50
2018-03-04T06:57:13.878Z,92.10
2018-03-04T06:59:41.395Z,91.90
2018-03-04T07:02:08.946Z,91.60
2018-03-04T07:04:36.469Z,91.20
2018-03-04T07:07:04.013Z,91.00
2018-03-04T07:09:32.287Z,91.30
2018-03-04T07:12:00.564Z,91.40
2018-03-04T07:14:28.239Z,91.00
2018-03-04T07:16:57.134Z,91.10
2018-03-04T07:19:24.793Z,90.80
2018-03-04T07:21:53.073Z,90.60
2018-03-04T07:24:20.617Z,90.50
2018-03-04T07:26:48.931Z,90.60
2018-03-04T07:29:16.442Z,90.60
2018-03-04T07:31:43.986Z,90.30
2018-03-04T07:34:11.499Z,90.30
2018-03-04T07:36:39.024Z,90.70
2018-03-04T07:39:07.336Z,90.40
2018-03-04T07:41:34.865Z,90.40
2018-03-04T07:44:05.138Z,90.40
2018-03-04T07:46:32.666Z,90.40
2018-03-04T07:49:00.217Z,90.70
2018-03-04T07:51:27.742Z,90.30
2018-03-04T07:53:55.284Z,90.00
2018-03-04T07:56:24.757Z,89.70
2018-03-04T07:58:52.287Z,88.70
2018-03-04T08:01:19.839Z,87.70
2018-03-04T08:03:48.135Z,86.60
2018-03-04T08:06:15.658Z,86.50
2018-03-04T08:08:43.978Z,85.40
2018-03-04T08:11:13.526Z,85.30
2018-03-04T08:13:41.205Z,84.70
2018-03-04T08:16:08.851Z,85.10
2018-03-04T08:18:37.172Z,83.70
2018-03-04T08:21:04.716Z,83.60
2018-03-04T08:23:32.225Z,82.90
2018-03-04T08:26:11.590Z,83.00
2018-03-04T08:28:39.120Z,81.70
2018-03-04T08:31:07.598Z,80.80
2018-03-04T08:33:35.182Z,80.00
2018-03-04T08:36:02.732Z,79.80
2018-03-04T08:38:30.336Z,80.00
2018-03-04T08:40:58.630Z,80.40
2018-03-04T08:43:26.212Z,80.30
2018-03-04T08:45:53.732Z,80.10
2018-03-04T08:48:21.308Z,77.70
2018-03-04T08:50:48.850Z,76.90
2018-03-04T08:53:17.135Z,74.10
2018-03-04T08:55:44.687Z,74.00
2018-03-04T08:58:12.201Z,73.30
2018-03-04T09:00:40.707Z,73.30
2018-03-04T09:03:08.999Z,73.10
2018-03-04T09:05:36.530Z,73.10
2018-03-04T09:08:04.093Z,73.30
2018-03-04T09:10:31.617Z,74.50
2018-03-04T09:12:59.388Z,73.10
2018-03-04T09:15:27.932Z,73.10
2018-03-04T09:17:55.467Z,70.80
2018-03-04T09:20:23.792Z,70.00
2018-03-04T09:22:51.318Z,69.80
2018-03-04T09:25:18.869Z,69.70
2018-03-04T09:27:46.399Z,67.70
2018-03-04T09:30:13.931Z,65.80
2018-03-04T09:32:41.506Z,67.10
2018-03-04T09:35:09.038Z,65.00
2018-03-04T09:37:36.617Z,65.00
2018-03-04T09:40:04.146Z,62.30
2018-03-04T09:42:31.683Z,60.70
2018-03-04T09:44:59.245Z,61.50
2018-03-04T09:47:27.530Z,61.30
2018-03-04T09:49:57.047Z,61.20
2018-03-04T09:52:24.593Z,61.10
2018-03-04T09:54:52.109Z,60.70
2018-03-04T09:57:19.671Z,59.80
2018-03-04T09:59:47.189Z,61.40
2018-03-04T10:02:14.744Z,59.00
2018-03-04T10:04:42.258Z,59.40
2018-03-04T10:07:09.774Z,59.00
2018-03-04T10:09:39.247Z,58.50
2018-03-04T10:12:07.734Z,57.50
2018-03-04T10:14:35.283Z,57.00
2018-03-04T10:17:02.818Z,58.20
2018-03-04T10:19:30.346Z,66.80
2018-03-04T10:21:57.924Z,66.60
2018-03-04T10:24:25.451Z,68.80
2018-03-04T10:26:53.010Z,69.50
2018-03-04T10:29:20.543Z,70.10
2018-03-04T10:31:48.078Z,71.80
2018-03-04T10:34:16.402Z,71.10
2018-03-04T10:36:44.906Z,71.00
2018-03-04T10:39:12.444Z,70.30
2018-03-04T10:41:40.003Z,68.50
2018-03-04T10:44:07.535Z,70.90
2018-03-04T10:46:35.067Z,70.80
2018-03-04T10:49:03.380Z,66.30
2018-03-04T10:51:31.847Z,66.40
2018-03-04T10:53:59.399Z,63.60
2018-03-04T10:56:27.722Z,63.90
2018-03-04T10:58:55.260Z,63.90
2018-03-04T11:01:28.689Z,57.40
2018-03-04T11:03:56.212Z,55.80
2018-03-04T11:06:23.794Z,54.40
2018-03-04T11:08:51.337Z,53.70
2018-03-04T11:11:18.865Z,52.40
2018-03-04T11:13:48.161Z,50.80
2018-03-04T11:16:17.421Z,50.80
2018-03-04T11:18:44.963Z,50.90
2018-03-04T11:21:12.504Z,50.20
2018-03-04T11:23:40.045Z,49.80
2018-03-04T11:26:07.598Z,49.30
2018-03-04T11:28:35.966Z,47.70
2018-03-04T11:31:04.420Z,47.60
2018-03-04T11:33:31.936Z,47.90
2018-03-04T11:36:00.830Z,47.80
2018-03-04T11:38:28.403Z,46.60
2018-03-04T11:40:55.950Z,47.20
2018-03-04T11:43:23.493Z,45.70
2018-03-04T11:45:51.022Z,45.70
2018-03-04T11:48:18.538Z,45.50
2018-03-04T11:50:46.090Z,45.20
2018-03-04T11:53:13.632Z,44.60
2018-03-04T11:55:41.184Z,44.90
2018-03-04T11:58:08.702Z,44.70
2018-03-04T12:00:36.226Z,44.50
2018-03-04T12:03:03.774Z,44.30
2018-03-04T12:05:31.315Z,43.70
2018-03-04T12:08:00.846Z,42.50
2018-03-04T12:10:28.386Z,41.70
2018-03-04T12:12:55.923Z,42.00
2018-03-04T12:15:24.458Z,40.40
2018-03-04T12:17:51.983Z,42.20
2018-03-04T12:20:19.566Z,40.50
2018-03-04T12:22:47.102Z,43.50
2018-03-04T12:25:14.623Z,44.40
2018-03-04T12:27:44.159Z,44.80
2018-03-04T12:30:11.687Z,42.80
2018-03-04T12:32:39.239Z,43.40
2018-03-04T12:35:07.867Z,43.60
2018-03-04T12:37:35.406Z,44.60
2018-03-04T12:40:02.954Z,45.50
2018-03-04T12:42:30.470Z,44.90
2018-03-04T12:44:58.025Z,45.20
2018-03-04T12:47:26.514Z,46.10
2018-03-04T12:49:54.052Z,47.30
2018-03-04T12:52:22.651Z,45.80
2018-03-04T12:54:50.182Z,43.80
2018-03-04T12:57:17.737Z,42.60
2018-03-04T12:59:45.288Z,43.10
2018-03-04T13:02:13.576Z,40.30
2018-03-04T13:04:41.122Z,40.40
2018-03-04T13:07:08.659Z,39.30
2018-03-04T13:09:36.202Z,40.40
2018-03-04T13:12:03.734Z,40.90
2018-03-04T13:14:31.275Z,38.10
2018-03-04T13:16:58.829Z,38.30
2018-03-04T13:19:26.354Z,38.80
2018-03-04T13:21:54.903Z,38.70
2018-03-04T13:24:23.438Z,47.90
2018-03-04T13:26:51.935Z,49.10
2018-03-04T13:29:19.492Z,50.50
2018-03-04T13:31:47.038Z,49.60
2018-03-04T13:34:15.357Z,46.70
2018-03-04T13:36:43.105Z,46.70
2018-03-04T13:39:10.634Z,48.90
2018-03-04T13:41:38.962Z,42.50
2018-03-04T13:44:06.559Z,42.50
2018-03-04T13:46:36.858Z,43.90
2018-03-04T13:49:05.385Z,43.90
2018-03-04T13:51:32.919Z,43.50
2018-03-04T13:54:00.475Z,43.50
2018-03-04T13:56:28.010Z,43.50
2018-03-04T13:58:55.554Z,42.60
2018-03-04T14:01:26.234Z,42.40
2018-03-04T14:03:56.646Z,42.50
2018-03-04T14:06:24.168Z,42.00
2018-03-04T14:08:51.696Z,42.70
2018-03-04T14:11:21.220Z,41.50
2018-03-04T14:13:48.758Z,42.10
2018-03-04T14:16:17.073Z,44.00
2018-03-04T14:18:44.594Z,44.00
2018-03-04T14:21:12.213Z,45.10
2018-03-04T14:23:39.778Z,45.20
2018-03-04T14:26:07.302Z,45.90
2018-03-04T14:28:34.843Z,45.50
2018-03-04T14:31:02.370Z,46.20
2018-03-04T14:33:29.902Z,46.30
2018-03-04T14:35:57.441Z,45.80
2018-03-04T14:38:24.968Z,46.30
2018-03-04T14:40:52.558Z,46.70
2018-03-04T14:43:20.074Z,46.50
2018-03-04T14:45:47.590Z,45.50
2018-03-04T14:48:17.089Z,44.80
2018-03-04T14:50:44.613Z,44.50
2018-03-04T14:53:12.142Z,44.60
2018-03-04T14:55:39.691Z,43.90
2018-03-04T14:58:07.974Z,45.10
2018-03-04T15:00:36.258Z,44.20
2018-03-04T15:03:03.810Z,44.20
2018-03-04T15:05:31.343Z,43.80
2018-03-04T15:07:58.916Z,43.20
2018-03-04T15:10:26.514Z,44.50
2018-03-04T15:12:54.055Z,42.80
2018-03-04T15:15:22.363Z,43.40
2018-03-04T15:17:49.894Z,43.40
2018-03-04T15:20:18.211Z,43.30
2018-03-04T15:22:45.731Z,43.30
2018-03-04T15:25:14.241Z,43.80
2018-03-04T15:27:41.800Z,42.80
2018-03-04T15:30:09.343Z,42.50
2018-03-04T15:32:36.882Z,42.80
2018-03-04T15:35:06.083Z,42.20
2018-03-04T15:37:33.684Z,42.10
2018-03-04T15:40:01.958Z,42.30
2018-03-04T15:42:29.473Z,42.30
2018-03-04T15:44:57.018Z,42.10
2018-03-04T15:47:24.547Z,42.10
2018-03-04T15:49:52.112Z,42.50
2018-03-04T15:52:19.680Z,42.30
2018-03-04T15:54:48.168Z,42.10
2018-03-04T15:57:15.718Z,42.80
2018-03-04T15:59:43.251Z,43.30
2018-03-04T16:02:10.808Z,43.30
2018-03-04T16:04:38.418Z,43.20
2018-03-04T16:07:06.704Z,43.00
2018-03-04T16:09:34.252Z,43.00
2018-03-04T16:12:01.794Z,43.40
2018-03-04T16:14:30.431Z,43.70
2018-03-04T16:16:58.391Z,42.90
2018-03-04T16:19:25.909Z,48.00
2018-03-04T16:21:53.470Z,53.20
2018-03-04T16:24:21.016Z,55.60
2018-03-04T16:26:48.547Z,56.00
2018-03-04T16:29:16.094Z,56.00
2018-03-04T16:31:43.624Z,56.90
2018-03-04T16:34:11.184Z,58.00
2018-03-04T16:44:57.488Z,60.30
2018-03-04T16:47:25.986Z,60.70
2018-03-04T16:49:55.075Z,61.60
2018-03-04T16:52:23.055Z,63.90
2018-03-04T16:54:50.698Z,65.00
2018-03-04T16:57:18.250Z,65.70
2018-03-04T16:59:45.777Z,66.60
2018-03-04T17:02:14.667Z,67.20
2018-03-04T17:04:42.778Z,67.10
2018-03-04T17:07:10.305Z,67.30
2018-03-04T17:09:37.858Z,67.40
2018-03-04T17:12:05.391Z,67.50
2018-03-04T17:14:33.693Z,61.00
2018-03-04T17:17:02.914Z,59.60
2018-03-04T17:19:30.441Z,59.50
2018-03-04T17:21:59.954Z,67.20
2018-03-04T17:24:28.341Z,68.50
2018-03-04T17:26:56.861Z,68.50
2018-03-04T17:29:26.344Z,67.80
2018-03-04T17:31:53.874Z,67.80
2018-03-04T17:34:23.375Z,67.50
2018-03-04T17:36:50.953Z,69.00
2018-03-04T17:39:18.474Z,70.60
2018-03-04T17:41:46.033Z,70.60
2018-03-04T17:44:14.327Z,71.00
2018-03-04T17:46:41.885Z,71.00
2018-03-04T17:49:11.151Z,70.80
2018-03-04T17:51:38.683Z,70.60
2018-03-04T17:54:06.239Z,71.10
2018-03-04T17:56:33.765Z,70.90
2018-03-04T17:59:02.117Z,72.20
2018-03-04T18:01:30.597Z,72.10
2018-03-04T18:03:58.122Z,71.70
2018-03-04T18:06:25.666Z,71.30
2018-03-04T18:08:53.185Z,70.60
2018-03-04T18:11:22.681Z,69.20
2018-03-04T18:13:50.960Z,68.10
2018-03-04T18:16:18.482Z,68.10
2018-03-04T18:18:46.072Z,66.90
2018-03-04T18:21:13.570Z,65.90
2018-03-04T18:23:41.112Z,66.40
2018-03-04T18:26:08.638Z,63.00
2018-03-04T18:28:36.153Z,63.50
2018-03-04T18:31:03.700Z,63.80
2018-03-04T18:33:31.223Z,62.60
2018-03-04T18:35:58.762Z,61.20
2018-03-04T18:38:26.283Z,62.50
2018-03-04T18:40:53.815Z,62.30
2018-03-04T18:43:22.132Z,62.60
2018-03-04T18:45:49.662Z,62.50
2018-03-04T18:48:17.207Z,63.00
2018-03-04T18:50:44.763Z,63.40
2018-03-04T18:53:13.225Z,64.20
2018-03-04T18:55:40.778Z,63.30
2018-03-04T18:58:08.287Z,63.10
2018-03-04T19:00:35.833Z,63.60
2018-03-04T19:03:04.114Z,64.10
2018-03-04T19:05:31.639Z,64.10
2018-03-04T19:07:59.262Z,63.50
2018-03-04T19:10:26.778Z,63.40
2018-03-04T19:12:55.096Z,63.00
2018-03-04T19:15:22.616Z,63.00
2018-03-04T19:17:50.901Z,63.70
2018-03-04T19:20:18.469Z,63.60
2018-03-04T19:22:46.045Z,62.50
2018-03-04T19:25:13.592Z,60.10
2018-03-04T19:27:41.119Z,59.20
2018-03-04T19:30:10.456Z,60.90
2018-03-04T19:32:38.913Z,61.50
2018-03-04T19:35:07.723Z,58.20
2018-03-04T19:37:35.271Z,58.70
2018-03-04T19:40:02.804Z,57.30
2018-03-04T19:42:30.322Z,57.90
2018-03-04T19:44:57.878Z,58.90
2018-03-04T19:47:25.391Z,58.90
2018-03-04T19:49:53.695Z,59.80
2018-03-04T19:52:21.206Z,59.80
2018-03-04T19:54:48.721Z,59.80
2018-03-04T19:57:16.271Z,60.50
2018-03-04T19:59:43.796Z,60.10
2018-03-04T20:02:12.119Z,60.60
2018-03-04T20:04:39.639Z,60.60
2018-03-04T20:07:07.158Z,61.30
2018-03-04T20:09:34.706Z,61.80
2018-03-04T20:12:02.246Z,62.40
2018-03-04T20:14:29.832Z,64.00
2018-03-04T20:16:57.342Z,65.60
2018-03-04T20:19:24.863Z,66.70
2018-03-04T20:21:52.422Z,66.90
2018-03-04T20:24:19.930Z,66.70
2018-03-04T20:26:47.692Z,71.10
2018-03-04T20:29:15.218Z,72.00
2018-03-04T20:31:42.739Z,73.80
2018-03-04T20:34:10.283Z,75.40
2018-03-04T20:36:37.803Z,76.20
2018-03-04T20:39:05.348Z,76.70
2018-03-04T20:41:32.863Z,77.80
2018-03-04T20:44:00.390Z,78.10
2018-03-04T20:46:30.117Z,78.80
2018-03-04T20:48:57.677Z,78.00
2018-03-04T20:51:25.228Z,78.30
2018-03-04T20:53:53.715Z,78.10
2018-03-04T20:56:21.251Z,79.00
2018-03-04T20:58:49.554Z,79.20
2018-03-04T21:01:17.110Z,79.20
2018-03-04T21:03:44.652Z,78.80
2018-03-04T21:06:12.180Z,79.30
2018-03-04T21:08:40.470Z,80.70
2018-03-04T21:11:08.114Z,80.70
2018-03-04T21:13:35.651Z,80.50
2018-03-04T21:16:03.350Z,80.70
2018-03-04T21:18:31.662Z,81.50
2018-03-04T21:20:59.210Z,81.50
2018-03-04T21:23:26.799Z,81.40
2018-03-04T21:25:55.338Z,81.80
2018-03-04T21:28:23.655Z,81.40
2018-03-04T21:30:51.182Z,81.50
2018-03-04T21:33:18.717Z,80.10
2018-03-04T21:35:47.049Z,82.40
2018-03-04T21:38:14.567Z,82.40
2018-03-04T21:40:42.115Z,83.20
2018-03-04T21:43:10.403Z,84.90
2018-03-04T21:45:38.687Z,84.40
2018-03-04T21:48:06.261Z,84.40
2018-03-04T21:50:33.881Z,84.90
2018-03-04T21:53:02.196Z,88.00
2018-03-04T21:55:29.722Z,87.90
2018-03-04T21:57:57.255Z,88.10
2018-03-04T22:00:24.806Z,88.40
2018-03-04T22:02:52.324Z,88.30
2018-03-04T22:05:19.885Z,85.90
2018-03-04T22:07:48.350Z,86.10
2018-03-04T22:10:15.867Z,86.20
2018-03-04T22:12:43.421Z,86.20
2018-03-04T22:15:10.948Z,89.70
2018-03-04T22:17:40.458Z,86.50
2018-03-04T22:20:07.973Z,85.10
2018-03-04T22:22:35.496Z,82.90
2018-03-04T22:25:03.055Z,83.60
2018-03-04T22:27:30.584Z,84.40
2018-03-04T22:29:58.109Z,86.10
2018-03-04T22:32:25.669Z,86.20
2018-03-04T22:34:53.950Z,90.20
2018-03-04T22:37:21.539Z,90.20
2018-03-04T22:39:49.118Z,89.70
2018-03-04T22:42:16.649Z,89.60
2018-03-04T22:44:44.196Z,90.10
2018-03-04T22:47:11.713Z,90.10
2018-03-04T22:49:39.254Z,89.40
2018-03-04T22:52:06.768Z,90.00
2018-03-04T22:54:34.456Z,89.70
2018-03-04T22:57:02.010Z,89.00
2018-03-04T22:59:29.519Z,88.70
2018-03-04T23:01:57.063Z,90.00
2018-03-04T23:04:24.585Z,90.10
2018-03-04T23:06:52.100Z,90.00
2018-03-04T23:09:20.413Z,90.30
2018-03-04T23:11:47.934Z,90.20
2018-03-04T23:14:15.478Z,90.00
2018-03-04T23:16:43.001Z,89.50
2018-03-04T23:19:10.522Z,88.60
2018-03-04T23:21:38.841Z,89.60
2018-03-04T23:24:06.355Z,89.60
2018-03-04T23:26:33.910Z,91.00
2018-03-04T23:29:02.203Z,90.50
2018-03-04T23:31:29.728Z,90.50
2018-03-04T23:33:57.277Z,89.90
2018-03-04T23:36:24.798Z,90.80
2018-03-04T23:38:52.341Z,91.40
2018-03-04T23:41:19.867Z,90.80
2018-03-04T23:43:47.417Z,90.20
2018-03-04T23:46:14.970Z,90.10
2018-03-04T23:48:42.494Z,90.20
2018-03-04T23:51:10.046Z,90.10
2018-03-04T23:53:37.592Z,89.60
2018-03-04T23:56:05.117Z,89.10
2018-03-04T23:58:33.637Z,88.70
